createdAt,value
2018-11-21T00:00:11.743Z,17.77
2018-11-21T00:02:59.856Z,18.07
2018-11-21T00:05:47.916Z,18.15
2018-11-21T00:08:36.734Z,17.87
2018-11-21T00:11:25.750Z,18.30
2018-11-21T00:14:14.211Z,19.17
2018-11-21T00:17:02.772Z,18.70
2018-11-21T00:19:50.617Z,18.73
2018-11-21T00:22:39.050Z,17.95
2018-11-21T00:25:27.383Z,20.23
2018-11-21T00:28:16.074Z,18.73
2018-11-21T00:33:52.754Z,20.37
2018-11-21T00:36:40.806Z,19.23
2018-11-21T00:39:29.363Z,19.02
2018-11-21T00:42:18.011Z,19.70
2018-11-21T00:45:07.089Z,19.90
2018-11-21T00:47:55.395Z,18.80
2018-11-21T00:50:24.684Z,19.80
2018-11-21T00:53:13.150Z,19.30
2018-11-21T00:58:56.882Z,19.25
2018-11-21T01:01:45.230Z,19.00
2018-11-21T01:04:33.928Z,18.57
2018-11-21T01:07:22.229Z,20.90
2018-11-21T01:10:10.947Z,19.60
2018-11-21T01:12:59.022Z,19.98
2018-11-21T01:15:47.390Z,20.12
2018-11-21T01:18:35.655Z,19.40
2018-11-21T01:21:23.385Z,20.20
2018-11-21T01:24:11.778Z,19.80
2018-11-21T01:27:00.529Z,20.55
2018-11-21T01:29:48.838Z,19.30
2018-11-21T01:32:36.658Z,19.17
2018-11-21T01:35:25.025Z,19.73
2018-11-21T01:38:13.062Z,20.50
2018-11-21T01:41:01.981Z,20.95
2018-11-21T01:43:50.038Z,19.25
2018-11-21T01:46:38.370Z,19.92
2018-11-21T01:49:27.224Z,19.00
2018-11-21T01:52:15.934Z,20.15
2018-11-21T01:55:04.852Z,19.50
2018-11-21T01:57:53.985Z,19.37
2018-11-21T02:00:42.259Z,19.85
2018-11-21T02:03:11.295Z,19.77
2018-11-21T02:05:59.488Z,19.73
2018-11-21T02:08:48.187Z,19.10
2018-11-21T02:14:12.420Z,19.42
2018-11-21T02:17:00.504Z,19.12
2018-11-21T02:19:49.022Z,19.73
2018-11-21T02:22:37.594Z,19.60
2018-11-21T02:25:26.240Z,18.92
2018-11-21T02:28:14.562Z,18.70
2018-11-21T02:31:03.287Z,18.48
2018-11-21T02:33:51.357Z,18.65
2018-11-21T02:36:38.799Z,20.23
2018-11-21T02:42:21.785Z,19.07
2018-11-21T02:44:50.858Z,19.45
2018-11-21T02:47:20.708Z,19.35
2018-11-21T02:49:50.045Z,18.65
2018-11-21T02:52:18.644Z,19.17
2018-11-21T02:54:47.592Z,19.92
2018-11-21T02:57:36.593Z,19.82
2018-11-21T03:00:25.858Z,18.32
2018-11-21T03:03:14.383Z,18.55
2018-11-21T03:05:55.060Z,18.48
2018-11-21T03:08:36.264Z,19.70
2018-11-21T03:11:17.222Z,19.12
2018-11-21T03:13:58.915Z,19.20
2018-11-21T03:16:39.450Z,19.42
2018-11-21T03:19:20.883Z,17.40
2018-11-21T03:22:01.714Z,20.12
2018-11-21T03:24:42.784Z,18.12
2018-11-21T03:27:24.013Z,18.12
2018-11-21T03:30:05.845Z,18.67
2018-11-21T03:32:47.209Z,19.57
2018-11-21T03:35:16.733Z,18.55
2018-11-21T03:38:04.879Z,18.10
2018-11-21T03:40:53.371Z,19.37
2018-11-21T03:43:41.432Z,18.02
2018-11-21T03:46:29.541Z,18.52
2018-11-21T03:49:18.104Z,19.25
2018-11-21T03:52:06.853Z,17.57
2018-11-21T03:54:55.219Z,19.42
2018-11-21T03:57:43.761Z,17.77
2018-11-21T04:00:31.660Z,17.25
2018-11-21T04:03:19.698Z,18.75
2018-11-21T04:06:08.019Z,18.17
2018-11-21T04:08:56.722Z,18.67
2018-11-21T04:11:45.363Z,17.87
2018-11-21T04:14:34.190Z,18.20
2018-11-21T04:17:22.394Z,17.45
2018-11-21T04:20:11.005Z,18.02
2018-11-21T04:22:59.768Z,17.62
2018-11-21T04:25:48.225Z,17.17
2018-11-21T04:28:36.366Z,18.25
2018-11-21T04:31:25.063Z,17.45
2018-11-21T04:34:13.340Z,17.32
2018-11-21T04:39:55.160Z,17.55
2018-11-21T04:42:44.051Z,18.55
2018-11-21T04:45:32.409Z,16.85
2018-11-21T04:48:20.727Z,18.50
2018-11-21T04:51:09.394Z,17.55
2018-11-21T04:53:39.137Z,17.57
2018-11-21T04:56:27.461Z,17.05
2018-11-21T04:58:57.086Z,16.70
2018-11-21T05:01:45.286Z,18.55
2018-11-21T05:04:15.149Z,18.50
2018-11-21T05:07:03.496Z,18.50
2018-11-21T05:09:51.799Z,18.15
2018-11-21T05:12:39.864Z,18.15
2018-11-21T05:15:28.065Z,18.75
2018-11-21T05:18:16.527Z,17.67
2018-11-21T05:21:04.652Z,17.82
2018-11-21T05:23:41.989Z,18.90
2018-11-21T05:26:30.640Z,17.92
2018-11-21T05:29:18.833Z,17.65
2018-11-21T05:32:06.683Z,18.67
2018-11-21T05:34:55.334Z,18.32
2018-11-21T05:37:43.997Z,18.73
2018-11-21T05:40:32.352Z,19.17
2018-11-21T05:43:28.745Z,20.08
2018-11-21T05:46:16.845Z,20.15
2018-11-21T05:49:05.588Z,21.02
2018-11-21T05:51:54.041Z,20.32
2018-11-21T05:54:42.083Z,20.15
2018-11-21T05:57:30.061Z,21.40
2018-11-21T06:00:18.758Z,20.17
2018-11-21T06:03:07.092Z,18.07
2018-11-21T06:05:55.501Z,20.95
2018-11-21T06:08:43.803Z,21.15
2018-11-21T06:11:32.319Z,20.68
2018-11-21T06:17:28.261Z,20.80
2018-11-21T06:20:16.888Z,20.30
2018-11-21T06:23:05.405Z,20.17
2018-11-21T06:25:53.871Z,20.08
2018-11-21T06:28:42.507Z,19.10
2018-11-21T06:31:30.849Z,19.52
2018-11-21T06:34:19.176Z,19.07
2018-11-21T06:37:07.746Z,20.27
2018-11-21T06:39:56.525Z,20.48
2018-11-21T06:43:03.990Z,20.30
2018-11-21T06:45:52.644Z,21.48
2018-11-21T06:48:41.622Z,19.73
2018-11-21T06:51:35.162Z,20.70
2018-11-21T06:54:18.476Z,19.65
2018-11-21T06:57:06.952Z,19.70
2018-11-21T06:59:55.231Z,19.67
2018-11-21T07:02:43.899Z,20.55
2018-11-21T07:05:32.533Z,18.45
2018-11-21T07:08:21.287Z,19.42
2018-11-21T07:11:09.563Z,20.08
2018-11-21T07:13:58.136Z,19.42
2018-11-21T07:16:45.851Z,20.30
2018-11-21T07:19:34.765Z,19.73
2018-11-21T07:22:22.806Z,19.45
2018-11-21T07:28:13.202Z,18.65
2018-11-21T07:30:59.842Z,19.73
2018-11-21T07:33:29.591Z,18.15
2018-11-21T07:36:17.883Z,19.00
2018-11-21T07:39:08.531Z,18.77
2018-11-21T07:41:57.699Z,20.85
2018-11-21T07:44:45.995Z,19.23
2018-11-21T07:47:34.687Z,19.10
2018-11-21T07:50:23.251Z,20.72
2018-11-21T07:53:11.601Z,21.00
2018-11-21T07:56:00.330Z,19.20
2018-11-21T07:58:48.759Z,19.00
2018-11-21T08:01:45.003Z,19.40
2018-11-21T08:04:39.622Z,19.10
2018-11-21T08:07:47.059Z,19.17
2018-11-21T08:10:48.042Z,20.35
2018-11-21T08:13:55.503Z,20.05
2018-11-21T08:17:02.795Z,20.05
2018-11-21T08:20:03.065Z,19.55
2018-11-21T08:23:03.534Z,20.00
2018-11-21T08:26:03.377Z,19.98
2018-11-21T08:28:44.785Z,19.90
2018-11-21T08:31:25.904Z,18.82
2018-11-21T08:34:07.117Z,20.25
2018-11-21T08:36:47.983Z,20.57
2018-11-21T08:39:29.343Z,19.42
2018-11-21T08:42:09.957Z,21.00
2018-11-21T08:44:51.374Z,19.40
2018-11-21T08:47:20.585Z,20.30
2018-11-21T08:50:10.168Z,20.60
2018-11-21T08:52:58.709Z,21.42
2018-11-21T08:55:47.885Z,19.20
2018-11-21T08:58:36.732Z,20.72
2018-11-21T09:01:25.235Z,20.57
2018-11-21T09:04:13.873Z,19.75
2018-11-21T09:07:02.404Z,18.92
2018-11-21T09:09:51.249Z,18.98
2018-11-21T09:12:39.973Z,19.10
2018-11-21T09:15:11.639Z,19.23
2018-11-21T09:18:00.510Z,21.57
2018-11-21T09:20:48.979Z,20.02
2018-11-21T09:23:36.899Z,19.50
2018-11-21T09:26:25.614Z,19.70
2018-11-21T09:29:13.964Z,19.75
2018-11-21T09:32:02.848Z,20.20
2018-11-21T09:37:27.589Z,19.70
2018-11-21T09:40:17.293Z,20.50
2018-11-21T09:43:08.843Z,20.30
2018-11-21T09:48:20.723Z,20.80
2018-11-21T09:59:19.105Z,21.45
2018-11-21T10:02:26.955Z,21.12
2018-11-21T10:05:15.539Z,20.30
2018-11-21T10:08:23.251Z,23.22
2018-11-21T10:11:19.595Z,21.90
2018-11-21T10:22:34.664Z,20.80
2018-11-21T10:25:23.651Z,20.92
2018-11-21T10:31:01.245Z,22.25
2018-11-21T10:33:50.110Z,21.55
2018-11-21T10:36:38.781Z,21.82
2018-11-21T10:39:27.749Z,20.90
2018-11-21T10:42:16.497Z,21.95
2018-11-21T10:45:04.805Z,21.77
2018-11-21T10:47:53.093Z,22.60
2018-11-21T10:56:52.995Z,21.77
2018-11-21T10:59:41.544Z,22.55
2018-11-21T11:02:49.201Z,23.18
2018-11-21T11:05:36.867Z,22.73
2018-11-21T11:08:44.085Z,21.33
2018-11-21T11:11:51.707Z,22.67
2018-11-21T11:14:58.950Z,21.40
2018-11-21T11:18:06.610Z,22.65
2018-11-21T11:20:55.929Z,22.90
2018-11-21T11:23:54.286Z,22.67
2018-11-21T11:27:02.066Z,23.07
2018-11-21T11:29:50.876Z,23.07
2018-11-21T11:32:58.198Z,21.82
2018-11-21T11:35:46.864Z,22.13
2018-11-21T11:38:54.567Z,22.32
2018-11-21T11:42:01.603Z,22.40
2018-11-21T11:45:08.965Z,21.70
2018-11-21T11:47:57.434Z,22.27
2018-11-21T11:51:04.682Z,22.00
2018-11-21T11:54:11.926Z,21.50
2018-11-21T11:57:19.257Z,22.15
2018-11-21T12:00:28.359Z,23.92
2018-11-21T12:03:35.611Z,22.00
2018-11-21T12:06:43.331Z,22.07
2018-11-21T12:09:50.401Z,21.23
2018-11-21T12:12:58.037Z,21.20
2018-11-21T12:16:05.349Z,21.48
2018-11-21T12:19:13.045Z,22.15
2018-11-21T12:22:20.719Z,21.27
2018-11-21T12:25:28.354Z,20.68
2018-11-21T12:28:34.460Z,20.10
2018-11-21T12:31:34.045Z,22.75
2018-11-21T12:34:41.782Z,20.97
2018-11-21T12:37:49.108Z,20.85
2018-11-21T12:40:56.456Z,21.15
2018-11-21T12:43:44.741Z,20.30
2018-11-21T12:46:52.160Z,21.73
2018-11-21T12:49:59.620Z,21.40
2018-11-21T12:53:06.523Z,20.72
2018-11-21T12:56:13.762Z,21.17
2018-11-21T12:59:20.754Z,21.25
2018-11-21T13:02:27.752Z,20.95
2018-11-21T13:05:35.193Z,20.72
2018-11-21T13:12:23.014Z,20.27
2018-11-21T13:15:30.401Z,20.90
2018-11-21T13:18:38.020Z,19.95
2018-11-21T13:27:29.187Z,19.40
2018-11-21T13:30:17.597Z,20.25
2018-11-21T13:33:05.965Z,18.25
2018-11-21T13:36:09.361Z,18.52
2018-11-21T13:39:19.195Z,18.82
2018-11-21T13:42:10.636Z,19.87
2018-11-21T13:45:18.758Z,18.80
2018-11-21T13:48:25.710Z,18.98
2018-11-21T13:51:33.133Z,19.60
2018-11-21T13:54:21.552Z,19.17
2018-11-21T13:57:09.635Z,19.50
2018-11-21T13:59:58.080Z,20.30
2018-11-21T14:02:27.803Z,18.82
2018-11-21T14:05:16.499Z,19.17
2018-11-21T14:08:04.948Z,19.95
2018-11-21T14:10:53.664Z,19.77
2018-11-21T14:13:42.082Z,19.50
2018-11-21T14:16:30.485Z,21.40
2018-11-21T14:19:18.293Z,19.17
2018-11-21T14:22:07.395Z,19.20
2018-11-21T14:24:36.855Z,19.37
2018-11-21T14:27:25.399Z,19.67
2018-11-21T14:29:54.304Z,24.50
2018-11-21T14:32:43.332Z,23.00
2018-11-21T14:35:30.917Z,20.48
2018-11-21T14:38:19.716Z,21.68
2018-11-21T14:40:49.204Z,19.37
2018-11-21T14:43:37.412Z,21.17
2018-11-21T14:46:25.973Z,21.52
2018-11-21T14:49:14.417Z,21.70
2018-11-21T14:52:02.663Z,24.63
2018-11-21T14:58:31.710Z,24.67
2018-11-21T15:01:19.888Z,28.47
2018-11-21T15:04:08.248Z,26.20
2018-11-21T15:06:56.824Z,25.08
2018-11-21T15:09:45.035Z,24.75
2018-11-21T15:12:33.595Z,24.65
2018-11-21T15:15:22.566Z,25.43
2018-11-21T15:18:11.262Z,23.20
2018-11-21T15:20:59.643Z,25.95
2018-11-21T15:23:48.453Z,27.25
2018-11-21T15:26:17.631Z,25.17
2018-11-21T15:29:06.445Z,26.68
2018-11-21T15:31:55.394Z,24.85
2018-11-21T15:34:43.829Z,27.10
2018-11-21T15:37:31.973Z,26.65
2018-11-21T15:40:21.929Z,24.18
2018-11-21T15:43:10.878Z,24.25
2018-11-21T15:45:40.739Z,22.90
2018-11-21T15:48:29.255Z,21.65
2018-11-21T15:51:17.772Z,24.27
2018-11-21T15:53:46.808Z,22.00
2018-11-21T15:56:16.102Z,22.15
2018-11-21T15:59:04.778Z,21.82
2018-11-21T16:01:52.907Z,22.27
2018-11-21T16:04:47.897Z,22.55
2018-11-21T16:07:29.928Z,19.85
2018-11-21T16:10:20.096Z,21.33
2018-11-21T16:13:09.008Z,22.77
2018-11-21T16:15:57.679Z,20.88
2018-11-21T16:18:46.213Z,19.87
2018-11-21T16:21:35.087Z,20.80
2018-11-21T16:24:23.172Z,21.45
2018-11-21T16:27:11.513Z,19.87
2018-11-21T16:29:59.861Z,19.07
2018-11-21T16:32:48.801Z,19.67
2018-11-21T16:35:36.878Z,20.65
2018-11-21T16:38:25.196Z,20.23
2018-11-21T16:41:13.891Z,19.17
2018-11-21T16:44:02.259Z,19.90
2018-11-21T16:46:50.720Z,19.35
2018-11-21T16:49:39.374Z,19.77
2018-11-21T16:52:27.859Z,19.73
2018-11-21T16:55:18.090Z,19.30
2018-11-21T16:58:07.021Z,20.35
2018-11-21T17:03:30.440Z,19.77
2018-11-21T17:06:25.666Z,22.55
2018-11-21T17:09:14.103Z,23.60
2018-11-21T17:12:02.185Z,21.80
2018-11-21T17:14:31.577Z,20.40
2018-11-21T17:17:20.514Z,20.75
2018-11-21T17:20:10.829Z,21.02
2018-11-21T17:23:00.276Z,21.23
2018-11-21T17:25:49.203Z,20.68
2018-11-21T17:28:37.696Z,19.17
2018-11-21T17:31:26.413Z,20.65
2018-11-21T17:34:14.530Z,20.00
2018-11-21T17:37:02.380Z,21.95
2018-11-21T17:39:32.315Z,21.23
2018-11-21T17:42:21.088Z,19.35
2018-11-21T17:45:10.196Z,24.00
2018-11-21T17:48:17.737Z,27.10
2018-11-21T17:50:47.418Z,18.95
2018-11-21T17:53:36.090Z,20.02
2018-11-21T17:56:06.048Z,20.30
2018-11-21T17:58:54.593Z,20.97
2018-11-21T18:01:43.554Z,20.15
2018-11-21T18:04:33.103Z,20.65
2018-11-21T18:07:02.907Z,21.65
2018-11-21T18:09:51.282Z,23.22
2018-11-21T18:12:40.174Z,21.95
2018-11-21T18:15:28.794Z,21.90
2018-11-21T18:18:17.874Z,20.25
2018-11-21T18:21:06.824Z,19.85
2018-11-21T18:23:38.528Z,19.92
2018-11-21T18:26:27.083Z,21.97
2018-11-21T18:29:16.044Z,21.57
2018-11-21T18:31:45.630Z,20.12
2018-11-21T18:34:34.181Z,21.52
2018-11-21T18:37:23.016Z,25.05
2018-11-21T18:40:13.042Z,21.45
2018-11-21T18:43:01.628Z,21.68
2018-11-21T18:45:51.049Z,21.23
2018-11-21T18:48:39.871Z,22.02
2018-11-21T18:51:28.090Z,21.75
2018-11-21T18:53:57.790Z,20.60
2018-11-21T18:57:05.371Z,22.10
2018-11-21T18:59:56.370Z,22.80
2018-11-21T19:02:45.251Z,22.80
2018-11-21T19:05:36.054Z,20.97
2018-11-21T19:08:25.564Z,21.60
2018-11-21T19:11:14.648Z,19.73
2018-11-21T19:13:44.376Z,21.10
2018-11-21T19:16:33.455Z,20.30
2018-11-21T19:19:22.122Z,21.50
2018-11-21T19:22:10.828Z,20.55
2018-11-21T19:25:02.231Z,20.50
2018-11-21T19:27:50.985Z,21.00
2018-11-21T19:30:39.902Z,20.57
2018-11-21T19:33:10.485Z,19.75
2018-11-21T19:35:59.762Z,21.15
2018-11-21T19:38:48.175Z,20.80
2018-11-21T19:41:18.732Z,20.95
2018-11-21T19:44:07.760Z,19.73
2018-11-21T19:46:56.609Z,20.95
2018-11-21T19:49:44.992Z,21.60
2018-11-21T19:52:33.433Z,20.80
2018-11-21T19:55:41.169Z,20.43
2018-11-21T19:58:10.813Z,22.60
2018-11-21T20:00:59.281Z,21.05
2018-11-21T20:03:48.057Z,21.00
2018-11-21T20:06:17.135Z,21.20
2018-11-21T20:08:47.335Z,20.85
2018-11-21T20:11:36.145Z,21.50
2018-11-21T20:14:17.102Z,21.60
2018-11-21T20:16:58.169Z,20.25
2018-11-21T20:19:28.308Z,21.15
2018-11-21T20:22:16.783Z,21.45
2018-11-21T20:25:06.226Z,20.88
2018-11-21T20:27:54.855Z,21.02
2018-11-21T20:30:43.827Z,21.20
2018-11-21T20:33:33.194Z,21.00
2018-11-21T20:36:22.252Z,21.12
2018-11-21T20:38:52.301Z,20.60
2018-11-21T20:41:21.691Z,21.25
2018-11-21T20:43:51.652Z,21.15
2018-11-21T20:49:36.086Z,20.90
2018-11-21T20:52:24.915Z,22.15
2018-11-21T20:55:14.521Z,20.50
2018-11-21T20:58:03.657Z,21.27
2018-11-21T21:00:52.497Z,20.55
2018-11-21T21:03:41.134Z,20.75
2018-11-21T21:06:29.849Z,21.25
2018-11-21T21:09:18.073Z,22.65
2018-11-21T21:12:06.125Z,21.77
2018-11-21T21:14:35.974Z,20.57
2018-11-21T21:17:24.987Z,20.00
2018-11-21T21:20:14.825Z,20.82
2018-11-21T21:23:03.026Z,20.92
2018-11-21T21:25:51.154Z,20.05
2018-11-21T21:28:39.298Z,23.25
2018-11-21T21:31:27.752Z,20.50
2018-11-21T21:34:16.594Z,20.68
2018-11-21T21:37:05.491Z,20.55
2018-11-21T21:39:54.744Z,20.72
2018-11-21T21:42:24.119Z,20.68
2018-11-21T21:45:14.516Z,21.07
2018-11-21T21:48:03.424Z,19.42
2018-11-21T21:50:51.678Z,20.52
2018-11-21T21:53:40.588Z,21.45
2018-11-21T21:56:29.190Z,21.33
2018-11-21T21:59:17.692Z,20.55
2018-11-21T22:02:01.761Z,19.70
2018-11-21T22:04:31.299Z,20.35
2018-11-21T22:07:59.535Z,19.73
2018-11-21T22:10:49.041Z,20.15
2018-11-21T22:13:37.708Z,21.70
2018-11-21T22:16:07.888Z,20.82
2018-11-21T22:18:56.817Z,20.20
2018-11-21T22:21:26.954Z,21.15
2018-11-21T22:27:25.787Z,20.65
2018-11-21T22:30:15.131Z,21.15
2018-11-21T22:33:04.211Z,20.25
2018-11-21T22:35:53.146Z,20.70
2018-11-21T22:38:41.741Z,21.45
2018-11-21T22:41:11.938Z,20.43
2018-11-21T22:44:00.526Z,19.87
2018-11-21T22:46:49.449Z,20.77
2018-11-21T22:49:38.399Z,21.85
2018-11-21T22:52:08.370Z,20.62
2018-11-21T22:54:57.412Z,19.95
2018-11-21T22:57:46.559Z,21.20
2018-11-21T23:00:53.770Z,21.40
2018-11-21T23:03:42.447Z,19.55
2018-11-21T23:06:30.372Z,19.98
2018-11-21T23:09:18.947Z,20.08
2018-11-21T23:11:59.446Z,20.90
2018-11-21T23:14:29.672Z,21.17
2018-11-21T23:16:59.589Z,22.25
2018-11-21T23:19:29.861Z,21.82
2018-11-21T23:22:18.062Z,20.25
2018-11-21T23:24:47.649Z,21.45
2018-11-21T23:27:16.916Z,18.80
2018-11-21T23:30:06.611Z,21.23
2018-11-21T23:32:55.126Z,19.82
2018-11-21T23:35:43.999Z,21.17
2018-11-21T23:38:32.860Z,20.08
2018-11-21T23:43:57.008Z,20.37
2018-11-21T23:46:45.935Z,20.45
2018-11-21T23:49:15.942Z,20.27
2018-11-21T23:52:04.510Z,21.40
2018-11-21T23:54:52.781Z,20.40
2018-11-21T23:57:41.012Z,21.05
